Time;durP1;ratioP1;P1;durP2;ratioP2;P2;SDS_P1;SDS_P2;PMS_P1;PMS_P2;Temp;Humidity;BMP_temperature;BMP_pressure;BME280_temperature;BME280_humidity;BME280_pressure;Samples;Min_cycle;Max_cycle;Signal;HPM_P1;HPM_P2
2021/04/17 00:00:10;;;;;;;22.87;19.83;;;;;;;1.42;99.64;96477.69;1042023;28;20075;-50
2021/04/17 00:00:40;;;;;;;21.77;19.00;;;;;;;1.41;99.04;96470.88;1044759;28;20025;-51
2021/04/17 00:01:11;;;;;;;22.03;18.60;;;;;;;1.46;99.12;96470.47;1041754;28;20097;-50
2021/04/17 00:01:41;;;;;;;23.30;19.77;;;;;;;1.46;99.27;96470.47;1044774;28;20124;-53
2021/04/17 00:02:12;;;;;;;22.87;19.33;;;;;;;1.44;99.38;96471.53;1038121;28;20084;-50
2021/04/17 00:02:42;;;;;;;22.77;19.87;;;;;;;1.41;99.38;96472.63;1037956;28;20044;-51
2021/04/17 00:03:13;;;;;;;21.77;19.20;;;;;;;1.38;99.39;96465.09;1039167;28;20495;-52
2021/04/17 00:03:44;;;;;;;23.13;19.73;;;;;;;1.40;99.28;96468.41;1036719;28;20108;-52
2021/04/17 00:04:15;;;;;;;24.58;20.77;;;;;;;1.41;99.38;96468.28;1027637;28;20065;-50
2021/04/17 00:04:45;;;;;;;23.90;19.57;;;;;;;1.37;99.24;96463.47;1029606;28;20050;-49
2021/04/17 00:05:16;;;;;;;22.90;18.50;;;;;;;1.77;100.00;96465.25;1030790;28;20025;-49
2021/04/17 00:05:46;;;;;;;24.37;18.30;;;;;;;2.02;100.00;96469.16;1031354;28;20044;-53
2021/04/17 00:06:17;;;;;;;20.83;18.60;;;;;;;1.98;100.00;96465.19;1046285;28;20037;-53
2021/04/17 00:06:47;;;;;;;21.70;16.87;;;;;;;2.23;100.00;96465.63;1048124;28;20023;-52
2021/04/17 00:07:18;;;;;;;23.53;17.47;;;;;;;2.45;99.13;96464.56;1038552;28;20105;-50
2021/04/17 00:07:48;;;;;;;20.07;17.00;;;;;;;2.59;99.73;96458.97;1039766;28;20021;-53
2021/04/17 00:08:19;;;;;;;18.60;16.57;;;;;;;2.95;99.23;96454.00;1034396;28;20018;-52
2021/04/17 00:08:49;;;;;;;23.07;17.03;;;;;;;3.00;96.86;96459.59;1033657;28;20105;-51
2021/04/17 00:09:24;;;;;;;19.80;15.60;;;;;;;3.20;97.41;96456.97;1037284;28;20065;-50
2021/04/17 00:09:54;;;;;;;19.20;15.60;;;;;;;3.27;96.48;96455.44;1045566;28;20029;-49
2021/04/17 00:10:25;;;;;;;21.60;16.37;;;;;;;3.23;95.33;96461.09;1042695;28;20464;-49
2021/04/17 00:10:55;;;;;;;23.07;16.67;;;;;;;3.29;95.08;96463.13;1043836;28;20025;-51
2021/04/17 00:11:26;;;;;;;18.43;16.43;;;;;;;3.10;93.96;96456.16;1039776;28;20068;-51
2021/04/17 00:11:58;;;;;;;20.90;16.95;;;;;;;2.90;94.71;96457.97;1038898;28;20021;-50
2021/04/17 00:12:29;;;;;;;19.45;15.98;;;;;;;2.93;95.22;96452.50;1039439;28;20391;-53
2021/04/17 00:12:59;;;;;;;22.70;17.00;;;;;;;2.91;94.75;96457.84;1040642;28;20025;-50
2021/04/17 00:13:30;;;;;;;20.13;17.53;;;;;;;2.84;94.80;96459.38;1043498;28;20089;-52
2021/04/17 00:14:00;;;;;;;25.53;17.90;;;;;;;2.72;94.90;96458.69;1042591;28;20099;-52
2021/04/17 00:14:33;;;;;;;20.77;17.13;;;;;;;2.65;94.93;96457.59;1041671;28;20017;-52
2021/04/17 00:15:04;;;;;;;20.15;16.67;;;;;;;2.61;95.28;96458.81;1040803;28;20029;-50
2021/04/17 00:15:34;;;;;;;21.33;17.25;;;;;;;2.70;95.41;96463.19;1038230;28;20025;-50
2021/04/17 00:16:05;;;;;;;21.30;17.23;;;;;;;2.57;95.59;96455.69;1038946;28;20026;-50
2021/04/17 00:16:36;;;;;;;21.13;17.42;;;;;;;2.44;95.31;96450.75;1034583;28;20021;-49
2021/04/17 00:17:06;;;;;;;20.93;17.13;;;;;;;2.43;96.38;96459.50;1040758;28;20048;-53
2021/04/17 00:17:37;;;;;;;21.47;17.97;;;;;;;2.42;96.36;96451.84;1036465;28;20018;-53
2021/04/17 00:18:07;;;;;;;20.73;17.80;;;;;;;2.57;96.56;96449.69;1036358;28;20025;-49
2021/04/17 00:18:38;;;;;;;22.70;17.53;;;;;;;2.60;96.79;96454.59;1038379;28;20026;-52
2021/04/17 00:19:08;;;;;;;22.97;17.80;;;;;;;2.47;95.92;96457.44;1040843;28;20478;-51
2021/04/17 00:19:39;;;;;;;20.33;17.27;;;;;;;2.49;96.64;96456.38;1044725;28;20024;-53
2021/04/17 00:20:09;;;;;;;21.00;17.47;;;;;;;2.70;97.13;96455.38;1041688;28;20025;-53
2021/04/17 00:20:40;;;;;;;20.83;17.70;;;;;;;2.62;95.46;96452.66;1043133;28;20018;-49
2021/04/17 00:21:11;;;;;;;22.93;17.67;;;;;;;2.49;95.09;96450.34;1042144;28;20091;-53
2021/04/17 00:21:41;;;;;;;23.43;18.23;;;;;;;2.34;95.08;96460.34;1042814;28;20021;-53
2021/04/17 00:22:12;;;;;;;23.90;17.90;;;;;;;2.14;95.41;96451.66;1043069;28;20028;-53
2021/04/17 00:22:42;;;;;;;24.87;19.60;;;;;;;2.13;95.24;96460.44;1043282;28;20021;-50
2021/04/17 00:23:13;;;;;;;21.33;18.70;;;;;;;2.04;96.26;96446.47;1042243;28;20056;-52
2021/04/17 00:23:43;;;;;;;22.40;17.17;;;;;;;2.11;97.40;96454.53;1042537;28;20139;-53
2021/04/17 00:24:13;;;;;;;24.23;18.77;;;;;;;2.06;97.26;96462.72;1042616;28;20037;-54
2021/04/17 00:24:44;;;;;;;24.90;18.37;;;;;;;2.28;97.86;96460.88;1042613;28;20416;-55
2021/04/17 00:25:15;;;;;;;23.40;18.30;;;;;;;2.28;96.54;96455.69;1043990;28;20047;-52
2021/04/17 00:25:45;;;;;;;22.17;18.13;;;;;;;2.25;97.33;96456.75;1044088;28;20028;-54
2021/04/17 00:26:16;;;;;;;25.27;19.20;;;;;;;2.14;96.24;96451.66;1043209;28;20040;-51
2021/04/17 00:26:46;;;;;;;23.57;18.20;;;;;;;2.10;97.19;96452.91;1042751;28;20022;-53
2021/04/17 00:27:17;;;;;;;23.03;18.10;;;;;;;2.17;98.07;96459.22;1043366;28;20474;-53
2021/04/17 00:27:47;;;;;;;21.77;17.83;;;;;;;2.51;97.85;96455.41;1044008;28;20094;-53
2021/04/17 00:28:18;;;;;;;22.33;17.67;;;;;;;2.25;95.91;96454.16;1043073;28;20028;-53
2021/04/17 00:28:48;;;;;;;23.63;18.50;;;;;;;2.17;95.92;96451.44;1042438;28;20123;-52
2021/04/17 00:29:19;;;;;;;21.30;18.17;;;;;;;2.12;97.05;96457.00;1043538;28;20031;-52
2021/04/17 00:29:49;;;;;;;22.63;18.17;;;;;;;2.05;97.18;96445.53;1044096;28;20550;-53
2021/04/17 00:30:20;;;;;;;21.17;18.93;;;;;;;2.01;97.29;96446.72;1043107;28;20054;-51
2021/04/17 00:30:51;;;;;;;21.90;18.40;;;;;;;2.03;98.50;96444.00;1042486;28;20029;-53
2021/04/17 00:31:21;;;;;;;22.93;18.67;;;;;;;2.00;97.69;96447.69;1042775;28;20025;-53
2021/04/17 00:31:52;;;;;;;22.60;18.63;;;;;;;1.97;96.92;96453.13;1043738;28;20020;-54
2021/04/17 00:32:22;;;;;;;24.30;18.70;;;;;;;2.03;98.06;96449.19;1044013;28;20014;-54
2021/04/17 00:32:53;;;;;;;23.07;19.03;;;;;;;1.96;98.30;96446.31;1042579;28;20684;-51
2021/04/17 00:33:23;;;;;;;21.13;18.30;;;;;;;1.91;98.23;96436.34;1042904;28;20021;-53
2021/04/17 00:33:54;;;;;;;20.50;18.30;;;;;;;2.07;98.85;96440.19;1044041;28;20024;-52
2021/04/17 00:34:24;;;;;;;22.60;18.90;;;;;;;1.94;97.51;96445.63;1044255;28;20032;-56
2021/04/17 00:34:54;;;;;;;23.20;19.80;;;;;;;1.83;97.16;96443.94;1043092;28;20021;-53
2021/04/17 00:35:25;;;;;;;22.43;19.77;;;;;;;1.76;98.02;96441.06;1042387;28;20057;-52
2021/04/17 00:35:55;;;;;;;21.80;17.63;;;;;;;2.44;99.63;96444.72;1043101;28;20017;-53
2021/04/17 00:36:26;;;;;;;20.97;18.17;;;;;;;2.32;97.25;96451.81;1043540;28;20043;-50
2021/04/17 00:36:57;;;;;;;20.63;17.93;;;;;;;2.56;98.08;96440.22;1042305;28;20032;-51
2021/04/17 00:37:27;;;;;;;22.97;18.00;;;;;;;2.47;96.59;96442.66;1041739;28;20028;-52
2021/04/17 00:37:57;;;;;;;19.70;17.33;;;;;;;2.55;97.19;96443.78;1043206;28;20021;-54
2021/04/17 00:38:28;;;;;;;19.80;16.87;;;;;;;2.81;96.95;96441.44;1043960;28;20517;-53
2021/04/17 00:38:59;;;;;;;19.97;17.33;;;;;;;2.76;95.52;96434.03;1043014;28;20022;-53
2021/04/17 00:39:29;;;;;;;20.73;18.17;;;;;;;2.58;94.96;96443.50;1042133;28;20049;-54
2021/04/17 00:39:59;;;;;;;18.80;16.77;;;;;;;2.53;95.38;96440.50;1042672;28;20041;-52
2021/04/17 00:40:30;;;;;;;21.30;17.97;;;;;;;2.61;96.33;96443.22;1043418;28;20021;-54
2021/04/17 00:41:00;;;;;;;20.83;17.90;;;;;;;2.39;95.12;96442.53;1042821;28;20026;-52
2021/04/17 00:41:31;;;;;;;22.93;17.63;;;;;;;2.51;96.76;96432.03;1042136;28;20398;-52
2021/04/17 00:42:01;;;;;;;21.50;17.63;;;;;;;2.73;96.25;96431.72;1042290;28;20017;-54
2021/04/17 00:42:32;;;;;;;19.87;17.27;;;;;;;2.63;95.37;96436.13;1043557;28;20021;-51
2021/04/17 00:43:02;;;;;;;22.30;18.60;;;;;;;2.54;95.01;96434.34;1043355;28;20089;-53
2021/04/17 00:43:33;;;;;;;19.53;16.97;;;;;;;2.59;96.31;96432.16;1042090;28;20060;-50
2021/04/17 00:44:04;;;;;;;20.50;18.30;;;;;;;2.57;96.29;96434.06;1041984;28;20024;-53
2021/04/17 00:44:35;;;;;;;19.85;16.95;;;;;;;2.60;95.86;96434.63;1041657;28;20017;-51
2021/04/17 00:45:06;;;;;;;23.10;18.38;;;;;;;2.36;95.00;96432.41;1041665;28;20017;-54
2021/04/17 00:45:37;;;;;;;21.50;19.20;;;;;;;2.28;95.95;96432.28;1042860;28;20466;-55
2021/04/17 00:46:07;;;;;;;19.63;17.50;;;;;;;2.41;96.83;96426.81;1036678;28;20018;-54
2021/04/17 00:46:38;;;;;;;20.23;17.77;;;;;;;2.59;97.47;96426.94;1036580;28;20353;-54
2021/04/17 00:47:08;;;;;;;21.70;19.20;;;;;;;2.38;95.33;96429.69;1032112;28;20021;-54
2021/04/17 00:47:41;;;;;;;20.27;18.03;;;;;;;2.52;97.31;96425.84;1032359;28;20014;-53
2021/04/17 00:48:13;;;;;;;22.95;18.88;;;;;;;2.29;95.66;96429.56;1036396;28;20042;-53
2021/04/17 00:48:43;;;;;;;22.75;18.75;;;;;;;2.16;95.86;96433.34;1037669;28;20026;-53
2021/04/17 00:49:14;;;;;;;26.07;18.90;;;;;;;2.13;97.04;96424.88;1040378;28;20048;-54
2021/04/17 00:49:44;;;;;;;21.87;18.30;;;;;;;2.12;96.73;96425.00;1040299;28;20735;-53
2021/04/17 00:50:15;;;;;;;22.70;18.60;;;;;;;2.10;97.51;96427.75;1040528;28;20053;-54
2021/04/17 00:50:46;;;;;;;21.70;18.67;;;;;;;2.17;98.24;96430.66;1044378;28;20021;-54
2021/04/17 00:51:16;;;;;;;21.65;18.33;;;;;;;2.29;98.03;96426.13;1042249;28;20079;-53
2021/04/17 00:51:47;;;;;;;21.80;17.77;;;;;;;2.44;98.51;96422.16;1042146;28;20052;-54
2021/04/17 00:52:17;;;;;;;21.23;17.63;;;;;;;2.54;97.67;96432.56;1042617;28;20017;-54
2021/04/17 00:52:48;;;;;;;20.60;18.07;;;;;;;2.42;95.80;96425.88;1039740;28;20018;-50
2021/04/17 00:53:19;;;;;;;21.00;17.00;;;;;;;2.42;97.18;96426.69;1036799;28;20124;-51
2021/04/17 00:53:50;;;;;;;21.07;17.80;;;;;;;2.56;97.10;96417.63;1036553;28;20014;-50
2021/04/17 00:54:20;;;;;;;22.73;17.70;;;;;;;2.76;96.98;96413.22;1040893;28;20494;-53
2021/04/17 00:54:51;;;;;;;22.37;17.70;;;;;;;2.71;95.64;96415.44;1044861;28;20017;-54
2021/04/17 00:55:21;;;;;;;20.53;18.10;;;;;;;2.42;94.50;96411.09;1042887;28;20504;-51
2021/04/17 00:55:52;;;;;;;21.07;18.20;;;;;;;2.47;96.60;96411.47;1044175;28;20075;-53
2021/04/17 00:56:22;;;;;;;21.67;18.27;;;;;;;2.56;96.43;96414.22;1042479;28;20013;-52
2021/04/17 00:56:53;;;;;;;19.23;16.83;;;;;;;2.60;96.49;96413.81;1043440;28;20550;-53
2021/04/17 00:57:23;;;;;;;24.40;18.13;;;;;;;2.42;94.87;96415.47;1041032;28;20029;-53
2021/04/17 00:57:54;;;;;;;21.20;18.30;;;;;;;2.27;95.53;96412.44;1044360;28;20028;-51
2021/04/17 00:58:25;;;;;;;20.43;17.77;;;;;;;2.34;97.03;96410.97;1040006;28;20013;-52
2021/04/17 00:58:55;;;;;;;23.38;17.95;;;;;;;2.30;96.87;96412.19;1034068;28;20101;-53
2021/04/17 00:59:26;;;;;;;20.37;17.70;;;;;;;2.34;97.61;96410.13;1036357;28;20022;-54
2021/04/17 00:59:56;;;;;;;25.60;19.20;;;;;;;2.25;97.54;96410.00;1036380;28;20488;-56
2021/04/17 01:00:27;;;;;;;21.70;19.30;;;;;;;2.17;96.84;96409.88;1039715;28;20017;-49
2021/04/17 01:00:57;;;;;;;22.70;19.07;;;;;;;1.99;96.67;96417.50;1044659;28;20028;-49
2021/04/17 01:01:27;;;;;;;21.40;19.10;;;;;;;1.97;97.45;96415.97;1042063;28;20404;-49
2021/04/17 01:01:58;;;;;;;20.70;18.10;;;;;;;2.34;99.37;96403.16;1042919;28;20020;-50
2021/04/17 01:02:30;;;;;;;20.00;17.83;;;;;;;2.48;97.49;96407.13;1043255;28;20017;-51
2021/04/17 01:03:38;;;;;;;22.10;18.13;;;;;;;2.49;96.81;96406.97;1034480;28;20353;-50
2021/04/17 01:04:30;;;;;;;22.33;17.65;;;;;;;2.83;96.48;96403.13;1031778;28;20509;-51
2021/04/17 01:05:00;;;;;;;21.52;17.55;;;;;;;2.53;95.61;96407.53;1044218;28;20051;-49
2021/04/17 01:05:32;;;;;;;19.57;17.07;;;;;;;2.48;95.67;96410.53;1041591;28;20386;-52
2021/04/17 01:06:05;;;;;;;21.13;18.42;;;;;;;2.39;96.12;96413.94;1040844;28;20362;-49
2021/04/17 01:06:52;;;;;;;21.45;17.90;;;;;;;2.42;97.18;96410.28;1035908;28;20018;-52
2021/04/17 01:07:28;;;;;;;22.65;19.48;;;;;;;2.16;95.43;96407.38;1040393;28;20021;-51
2021/04/17 01:07:59;;;;;;;21.50;18.45;;;;;;;2.18;97.46;96411.47;1036031;28;20030;-53
2021/04/17 01:08:38;;;;;;;21.23;17.38;;;;;;;2.28;97.69;96409.72;1029080;28;20555;-53
2021/04/17 01:09:17;;;;;;;20.90;17.80;;;;;;;2.56;96.94;96407.25;1032163;28;20388;-51
2021/04/17 01:09:52;;;;;;;20.20;17.45;;;;;;;2.54;95.96;96413.56;1028707;28;20030;-52
2021/04/17 01:10:37;;;;;;;19.80;17.38;;;;;;;2.46;96.32;96404.66;1029587;28;20026;-54
2021/04/17 01:11:09;;;;;;;21.35;17.58;;;;;;;2.46;95.81;96402.06;1028494;28;20030;-50
2021/04/17 01:11:44;;;;;;;22.58;18.65;;;;;;;2.21;95.37;96405.19;1035665;28;20500;-53
2021/04/17 01:12:16;;;;;;;21.70;18.90;;;;;;;2.05;96.29;96416.94;1040448;28;20032;-54
2021/04/17 01:12:50;;;;;;;23.35;19.00;;;;;;;2.01;96.78;96406.97;1036716;28;20022;-52
2021/04/17 01:13:21;;;;;;;21.83;18.42;;;;;;;1.91;97.94;96407.78;1034380;28;20082;-50
2021/04/17 01:13:51;;;;;;;23.30;18.38;;;;;;;2.15;98.26;96408.34;1032315;28;20015;-53
2021/04/17 01:14:22;;;;;;;21.53;18.17;;;;;;;2.17;98.10;96406.41;1026208;28;20373;-51
2021/04/17 01:14:52;;;;;;;20.73;18.07;;;;;;;2.24;97.68;96407.53;1023725;29;20026;-51
2021/04/17 01:15:23;;;;;;;20.97;18.43;;;;;;;2.27;98.17;96412.44;1027999;28;20040;-50
2021/04/17 01:15:54;;;;;;;23.00;18.07;;;;;;;2.16;97.46;96405.63;1028172;28;20015;-50
2021/04/17 01:16:24;;;;;;;20.23;18.03;;;;;;;2.35;98.13;96416.97;1024496;28;20763;-50
2021/04/17 01:16:55;;;;;;;21.80;18.07;;;;;;;2.41;97.35;96406.03;1029849;28;20177;-52
2021/04/17 01:17:26;;;;;;;21.23;18.40;;;;;;;2.23;96.87;96406.72;1035092;28;20014;-50
2021/04/17 01:17:57;;;;;;;19.63;17.53;;;;;;;2.58;98.50;96412.31;1029917;28;20369;-50
2021/04/17 01:18:27;;;;;;;19.33;17.23;;;;;;;2.69;96.90;96406.13;1031875;28;20022;-50
2021/04/17 01:18:58;;;;;;;21.20;17.60;;;;;;;2.64;95.88;96411.75;1028109;28;20110;-50
2021/04/17 01:20:01;;;;;;;20.40;18.13;;;;;;;2.38;94.71;96409.72;1024447;28;20103;-50
2021/04/17 01:20:47;;;;;;;21.92;17.10;;;;;;;2.21;95.79;96405.19;1021854;28;20024;-53
2021/04/17 01:21:17;;;;;;;18.88;16.90;;;;;;;2.27;97.40;96409.84;1038717;28;20022;-51
2021/04/17 01:21:48;;;;;;;23.93;18.97;;;;;;;2.26;97.69;96411.63;1039760;28;20519;-53
2021/04/17 01:22:23;;;;;;;24.17;19.00;;;;;;;2.30;97.47;96412.19;1033889;28;20057;-51
2021/04/17 01:23:05;;;;;;;21.38;18.38;;;;;;;2.19;96.64;96409.72;1033202;28;20018;-51
2021/04/17 01:23:40;;;;;;;23.55;19.40;;;;;;;2.04;96.64;96420.50;1040154;28;20084;-54
2021/04/17 01:24:17;;;;;;;21.98;18.15;;;;;;;2.16;97.69;96408.22;1039443;28;20040;-51
2021/04/17 01:25:04;;;;;;;20.83;17.98;;;;;;;2.42;97.90;96410.28;1038201;28;20028;-50
2021/04/17 01:26:16;;;;;;;21.52;19.08;;;;;;;2.35;97.25;96412.56;1032165;28;20026;-53
2021/04/17 01:26:46;;;;;;;21.83;17.95;;;;;;;2.31;96.87;96406.03;1039897;28;20056;-52
2021/04/17 01:27:17;;;;;;;19.97;17.87;;;;;;;2.39;97.75;96413.94;1038256;28;20072;-50
2021/04/17 01:27:47;;;;;;;21.10;18.20;;;;;;;2.52;97.62;96410.25;1036651;28;20036;-50
2021/04/17 01:28:18;;;;;;;20.37;16.93;;;;;;;2.58;96.84;96404.50;1036581;28;20029;-50
2021/04/17 01:28:51;;;;;;;22.53;17.27;;;;;;;2.56;96.28;96412.44;1036520;28;20026;-50
2021/04/17 01:29:22;;;;;;;21.13;17.63;;;;;;;2.45;96.46;96410.81;1036976;28;20072;-52
2021/04/17 01:29:52;;;;;;;22.27;18.13;;;;;;;2.41;96.11;96409.44;1040733;28;20064;-50
2021/04/17 01:30:23;;;;;;;20.57;17.60;;;;;;;2.45;96.56;96405.59;1040793;28;20075;-51
2021/04/17 01:30:54;;;;;;;23.23;18.23;;;;;;;2.25;95.93;96404.78;1036455;28;20026;-50
2021/04/17 01:31:30;;;;;;;21.88;18.05;;;;;;;2.28;96.77;96408.91;1032657;28;20358;-54
2021/04/17 01:32:02;;;;;;;20.63;18.42;;;;;;;2.21;97.36;96406.00;1028596;28;20022;-53
2021/04/17 01:32:32;;;;;;;21.38;17.65;;;;;;;2.40;97.98;96406.97;1025430;28;20118;-54
2021/04/17 01:33:03;;;;;;;19.73;17.57;;;;;;;2.59;97.18;96411.34;1026631;28;20027;-53
2021/04/17 01:33:36;;;;;;;22.03;18.93;;;;;;;2.30;95.20;96412.19;1032673;28;20030;-54
2021/04/17 01:34:07;;;;;;;22.38;19.08;;;;;;;2.12;96.04;96405.03;1028839;28;20074;-52
2021/04/17 01:34:39;;;;;;;21.37;18.27;;;;;;;2.07;96.80;96412.44;1029104;28;20096;-54
2021/04/17 01:35:12;;;;;;;24.23;19.38;;;;;;;1.82;96.51;96407.75;1028381;28;20274;-50
2021/04/17 01:35:43;;;;;;;21.85;18.77;;;;;;;1.70;97.04;96407.88;1029746;28;20034;-54
2021/04/17 01:36:13;;;;;;;21.37;18.80;;;;;;;1.81;98.56;96406.09;1029002;28;20513;-52
2021/04/17 01:36:44;;;;;;;22.63;20.17;;;;;;;1.69;97.84;96405.41;1028831;28;20037;-51
2021/04/17 01:37:14;;;;;;;23.73;19.60;;;;;;;1.71;98.67;96406.88;1032428;28;20022;-53
2021/04/17 01:38:02;;;;;;;23.60;19.70;;;;;;;1.96;98.70;96412.56;1028670;28;20113;-50
2021/04/17 01:38:34;;;;;;;23.30;18.45;;;;;;;2.07;97.99;96406.44;1039027;28;20081;-54
2021/04/17 01:39:14;;;;;;;19.90;17.27;;;;;;;2.17;97.70;96409.03;1040686;28;20510;-50
2021/04/17 01:39:44;;;;;;;20.30;18.02;;;;;;;2.10;97.57;96406.97;1040702;28;20033;-52
2021/04/17 01:40:15;;;;;;;22.33;18.90;;;;;;;2.25;97.10;96409.19;1040640;28;20077;-50
2021/04/17 01:40:47;;;;;;;20.67;18.03;;;;;;;2.22;96.78;96412.06;1040346;28;20021;-52
2021/04/17 01:41:27;;;;;;;22.10;18.50;;;;;;;2.07;96.46;96406.44;1032400;28;20534;-52
2021/04/17 01:42:01;;;;;;;21.15;17.17;;;;;;;2.07;97.38;96406.44;1032164;28;20030;-53
2021/04/17 01:42:31;;;;;;;24.40;18.73;;;;;;;2.36;97.23;96411.63;1030573;28;20046;-51
2021/04/17 01:43:02;;;;;;;21.30;18.50;;;;;;;2.09;95.65;96401.91;1031823;28;20083;-49
2021/04/17 01:43:32;;;;;;;21.67;18.83;;;;;;;2.03;96.36;96416.25;1036624;28;20010;-53
2021/04/17 01:44:07;;;;;;;21.27;18.23;;;;;;;2.18;96.98;96405.47;1036574;28;20014;-50
2021/04/17 01:44:39;;;;;;;21.25;17.73;;;;;;;2.23;96.93;96406.72;1036992;28;20097;-53
2021/04/17 01:45:10;;;;;;;21.48;19.17;;;;;;;2.04;96.38;96409.28;1040597;28;20475;-51
2021/04/17 01:45:41;;;;;;;20.30;17.85;;;;;;;2.26;97.46;96409.03;1035948;28;20013;-54
2021/04/17 01:46:16;;;;;;;21.37;17.40;;;;;;;2.45;96.67;96405.59;1036048;28;20332;-51
2021/04/17 01:46:53;;;;;;;22.05;18.63;;;;;;;2.39;95.38;96405.34;1032212;28;20098;-51
2021/04/17 01:47:24;;;;;;;19.83;17.23;;;;;;;2.37;95.87;96404.66;1033691;28;20014;-52
2021/04/17 01:47:55;;;;;;;25.77;18.83;;;;;;;2.24;96.19;96403.13;1033925;28;20014;-49
2021/04/17 01:48:29;;;;;;;21.13;18.38;;;;;;;2.33;95.92;96404.09;1036815;28;20014;-49
2021/04/17 01:49:01;;;;;;;22.13;18.58;;;;;;;2.23;95.54;96398.09;1036326;28;20096;-50
2021/04/17 01:49:32;;;;;;;23.05;19.05;;;;;;;2.13;96.11;96406.69;1029057;28;20015;-50
2021/04/17 01:50:03;;;;;;;20.92;18.63;;;;;;;2.03;96.20;96411.03;1032030;28;20110;-50
2021/04/17 01:50:34;;;;;;;22.47;18.97;;;;;;;1.90;96.72;96400.94;1032481;28;20006;-54
2021/04/17 01:51:04;;;;;;;26.53;20.27;;;;;;;1.80;96.40;96394.88;1025336;28;20256;-53
2021/04/17 01:51:35;;;;;;;22.07;19.73;;;;;;;1.70;96.89;96399.22;1028518;28;20417;-52
2021/04/17 01:52:06;;;;;;;24.87;20.20;;;;;;;1.60;97.75;96400.03;1028042;28;20021;-53
2021/04/17 01:52:36;;;;;;;26.23;20.63;;;;;;;1.59;98.31;96403.59;1032442;28;20089;-52
2021/04/17 01:53:06;;;;;;;24.53;20.53;;;;;;;1.46;98.69;96403.00;1028607;28;20260;-52
2021/04/17 01:53:38;;;;;;;22.90;19.40;;;;;;;1.62;99.96;96402.50;1028316;28;20023;-52
2021/04/17 01:54:17;;;;;;;21.58;18.77;;;;;;;1.81;98.61;96404.34;1032298;28;20022;-51
2021/04/17 01:54:51;;;;;;;26.77;20.45;;;;;;;1.69;97.43;96393.22;1029905;28;20469;-52
2021/04/17 01:55:22;;;;;;;22.48;20.05;;;;;;;1.65;99.18;96397.03;1027984;28;20099;-53
2021/04/17 01:55:52;;;;;;;23.87;19.37;;;;;;;1.82;98.90;96398.16;1032669;28;20452;-53
2021/04/17 01:56:22;;;;;;;19.97;17.70;;;;;;;2.07;99.17;96394.25;1033511;28;20117;-51
2021/04/17 01:56:56;;;;;;;23.87;19.23;;;;;;;1.98;98.56;96397.66;1028829;28;20365;-52
2021/04/17 01:57:27;;;;;;;22.23;18.40;;;;;;;2.24;98.40;96397.94;1036742;28;20021;-51
2021/04/17 01:57:58;;;;;;;20.40;18.20;;;;;;;2.34;96.92;96397.97;1032482;28;20019;-53
2021/04/17 01:58:30;;;;;;;21.65;18.45;;;;;;;2.30;96.81;96396.59;1033950;28;20046;-50
2021/04/17 01:59:00;;;;;;;23.40;18.42;;;;;;;2.10;95.87;96406.16;1035932;28;20018;-50
2021/04/17 01:59:32;;;;;;;25.93;20.30;;;;;;;1.98;96.21;96402.03;1033456;28;20015;-52
2021/04/17 02:00:04;;;;;;;21.02;18.55;;;;;;;1.99;97.10;96401.06;1032222;28;20014;-51
2021/04/17 02:00:35;;;;;;;21.80;19.13;;;;;;;1.97;97.44;96397.78;1032760;28;20092;-53
2021/04/17 02:01:05;;;;;;;20.40;17.90;;;;;;;2.23;97.86;96395.47;1036424;28;20049;-50
2021/04/17 02:01:36;;;;;;;24.63;18.10;;;;;;;2.34;97.01;96395.38;1036611;28;20048;-55
2021/04/17 02:02:07;;;;;;;22.53;18.90;;;;;;;2.30;96.41;96400.00;1040533;28;20071;-51
2021/04/17 02:02:37;;;;;;;22.27;18.33;;;;;;;2.34;96.25;96397.97;1040401;28;20016;-52
2021/04/17 02:03:08;;;;;;;22.37;18.03;;;;;;;2.12;96.50;96393.84;1040502;28;20383;-53
2021/04/17 02:03:38;;;;;;;22.00;18.27;;;;;;;2.10;96.11;96390.56;1036350;28;20022;-53
2021/04/17 02:04:08;;;;;;;23.17;19.87;;;;;;;1.89;95.78;96396.69;1040470;28;20013;-54
2021/04/17 02:04:39;;;;;;;23.83;20.27;;;;;;;1.81;95.99;96395.69;1040206;28;20021;-54
2021/04/17 02:05:10;;;;;;;23.87;17.97;;;;;;;1.90;97.92;96395.72;1040382;28;20013;-52
2021/04/17 02:05:40;;;;;;;21.43;18.90;;;;;;;2.16;97.27;96391.78;1044346;28;20017;-53
2021/04/17 02:06:11;;;;;;;24.73;19.73;;;;;;;1.87;96.15;96397.78;1040486;28;20071;-52
2021/04/17 02:06:41;;;;;;;21.93;19.53;;;;;;;1.75;97.11;96402.28;1040715;28;20020;-51
2021/04/17 02:07:12;;;;;;;27.33;19.77;;;;;;;1.65;98.06;96397.03;1040570;28;20121;-54
2021/04/17 02:07:42;;;;;;;26.70;19.80;;;;;;;1.72;98.37;96392.97;1040649;28;20170;-49
2021/04/17 02:08:13;;;;;;;24.77;18.87;;;;;;;1.72;97.80;96392.97;1036720;28;20013;-53
2021/04/17 02:08:43;;;;;;;22.37;18.60;;;;;;;1.73;97.91;96393.78;1036421;28;20050;-51
2021/04/17 02:09:14;;;;;;;24.77;20.50;;;;;;;1.58;97.45;96391.56;1040696;28;20479;-51
2021/04/17 02:09:44;;;;;;;21.90;19.07;;;;;;;1.64;98.78;96390.22;1040673;28;20088;-51
2021/04/17 02:10:15;;;;;;;21.13;18.27;;;;;;;1.91;99.31;96396.53;1040692;28;20068;-50
2021/04/17 02:10:46;;;;;;;24.53;19.53;;;;;;;1.64;97.36;96392.81;1040301;28;20092;-52
2021/04/17 02:11:16;;;;;;;24.90;19.93;;;;;;;1.51;97.99;96387.84;1040506;28;20456;-50
2021/04/17 02:11:47;;;;;;;23.93;19.17;;;;;;;1.52;98.50;96386.91;1040602;28;20020;-50
2021/04/17 02:12:17;;;;;;;22.97;19.27;;;;;;;1.53;98.72;96391.13;1040348;28;20467;-52
2021/04/17 02:12:47;;;;;;;23.83;19.57;;;;;;;1.44;98.72;96399.69;1040813;28;20093;-51
2021/04/17 02:13:18;;;;;;;22.70;19.17;;;;;;;1.29;98.59;96385.44;1040712;28;20100;-51
2021/04/17 02:13:49;;;;;;;23.50;19.90;;;;;;;1.27;98.75;96387.38;1041014;28;20013;-50
2021/04/17 02:14:19;;;;;;;27.67;20.80;;;;;;;1.23;99.11;96398.00;1040260;28;20017;-52
2021/04/17 02:14:50;;;;;;;20.67;18.43;;;;;;;1.44;100.00;96388.50;1040157;28;20067;-52
2021/04/17 02:15:20;;;;;;;24.03;19.37;;;;;;;1.43;99.51;96392.88;1032382;28;20077;-51
2021/04/17 02:15:51;;;;;;;26.20;20.47;;;;;;;1.37;99.42;96396.00;1028427;28;20034;-51
2021/04/17 02:16:31;;;;;;;23.13;19.27;;;;;;;1.45;99.78;96397.94;1031963;28;20178;-54
2021/04/17 02:17:03;;;;;;;27.38;19.95;;;;;;;1.35;99.37;96398.72;1033908;28;20064;-53
2021/04/17 02:17:54;;;;;;;24.60;20.77;;;;;;;1.24;99.21;96391.03;1037950;28;20063;-52
2021/04/17 02:18:28;;;;;;;26.13;20.98;;;;;;;1.17;99.93;96393.34;1036557;28;20121;-51
2021/04/17 02:19:00;;;;;;;24.90;21.00;;;;;;;1.09;99.35;96395.72;1032515;28;20045;-52
2021/04/17 02:19:39;;;;;;;26.02;21.58;;;;;;;1.04;100.00;96401.31;1028419;28;20585;-53
2021/04/17 02:20:11;;;;;;;28.65;21.98;;;;;;;0.98;100.00;96395.81;1023991;28;20079;-53
2021/04/17 02:20:43;;;;;;;27.15;20.80;;;;;;;0.89;100.00;96400.00;1030375;28;20050;-54
2021/04/17 02:21:15;;;;;;;26.05;20.92;;;;;;;0.93;100.00;96401.41;1032557;28;20555;-53
2021/04/17 02:21:46;;;;;;;25.02;20.85;;;;;;;0.98;100.00;96401.00;1034528;28;20022;-54
2021/04/17 02:22:16;;;;;;;23.92;20.20;;;;;;;0.99;100.00;96400.06;1036879;28;20476;-54
2021/04/17 02:22:47;;;;;;;25.70;20.73;;;;;;;1.17;100.00;96397.69;1036375;28;20018;-52
2021/04/17 02:23:17;;;;;;;24.20;20.23;;;;;;;1.34;100.00;96394.50;1028388;28;20075;-54
2021/04/17 02:23:48;;;;;;;22.03;19.53;;;;;;;1.64;100.00;96397.16;1024353;28;20078;-50
2021/04/17 02:24:18;;;;;;;22.93;19.23;;;;;;;1.48;99.09;96397.69;1024098;28;20031;-54
2021/04/17 02:24:49;;;;;;;23.07;19.37;;;;;;;1.51;99.18;96398.22;1024285;28;20473;-50
2021/04/17 02:25:19;;;;;;;22.87;19.23;;;;;;;1.51;99.66;96398.22;1024486;28;20027;-53
2021/04/17 02:25:50;;;;;;;21.67;19.33;;;;;;;1.49;99.72;96401.91;1028611;28;20121;-51
2021/04/17 02:26:20;;;;;;;24.37;20.43;;;;;;;1.36;99.16;96392.56;1032248;28;20026;-52
2021/04/17 02:26:50;;;;;;;23.07;19.60;;;;;;;1.34;99.30;96399.69;1028532;28;20030;-51
2021/04/17 02:27:21;;;;;;;25.97;20.67;;;;;;;1.20;99.26;96395.66;1028628;28;20030;-53
2021/04/17 02:27:51;;;;;;;28.03;21.17;;;;;;;1.12;100.00;96390.28;1028340;28;20461;-52
2021/04/17 02:28:22;;;;;;;22.40;19.33;;;;;;;1.52;100.00;96393.84;1024765;28;20084;-53
2021/04/17 02:28:53;;;;;;;23.23;19.90;;;;;;;1.38;99.70;96395.03;1028444;28;20048;-49